sensor_id;sensor_type;location;lat;lon;timestamp;pressure;altitude;pressure_sealevel;temperature;humidity
57572;BME280;44459;43.522;24.470;2024-01-15T00:00:41;99670.16;;;-2.12;89.57
57572;BME280;44459;43.522;24.470;2024-01-15T00:03:06;99665.00;;;-2.12;89.29
57572;BME280;44459;43.522;24.470;2024-01-15T00:05:32;99656.41;;;-2.11;88.89
57572;BME280;44459;43.522;24.470;2024-01-15T00:07:57;99655.69;;;-2.09;88.76
57572;BME280;44459;43.522;24.470;2024-01-15T00:10:23;99656.88;;;-2.20;88.47
57572;BME280;44459;43.522;24.470;2024-01-15T00:12:49;99656.88;;;-2.20;88.79
57572;BME280;44459;43.522;24.470;2024-01-15T00:15:15;99655.09;;;-2.21;88.81
57572;BME280;44459;43.522;24.470;2024-01-15T00:17:40;99659.44;;;-2.20;88.56
57572;BME280;44459;43.522;24.470;2024-01-15T00:20:06;99651.56;;;-2.23;88.49
57572;BME280;44459;43.522;24.470;2024-01-15T00:22:32;99653.13;;;-2.26;88.48
57572;BME280;44459;43.522;24.470;2024-01-15T00:24:58;99648.53;;;-2.32;88.42
57572;BME280;44459;43.522;24.470;2024-01-15T00:27:23;99650.16;;;-2.34;89.00
57572;BME280;44459;43.522;24.470;2024-01-15T00:29:49;99652.66;;;-2.35;89.57
57572;BME280;44459;43.522;24.470;2024-01-15T00:32:16;99639.03;;;-2.33;90.28
57572;BME280;44459;43.522;24.470;2024-01-15T00:34:41;99641.59;;;-2.33;89.98
57572;BME280;44459;43.522;24.470;2024-01-15T00:37:07;99638.84;;;-2.36;90.49
57572;BME280;44459;43.522;24.470;2024-01-15T00:39:33;99632.81;;;-2.36;90.82
57572;BME280;44459;43.522;24.470;2024-01-15T00:41:58;99632.81;;;-2.36;90.43
57572;BME280;44459;43.522;24.470;2024-01-15T00:44:23;99638.66;;;-2.40;90.58
57572;BME280;44459;43.522;24.470;2024-01-15T00:46:49;99631.47;;;-2.46;89.49
57572;BME280;44459;43.522;24.470;2024-01-15T00:49:14;99634.75;;;-2.50;89.49
57572;BME280;44459;43.522;24.470;2024-01-15T00:51:40;99639.25;;;-2.64;91.31
57572;BME280;44459;43.522;24.470;2024-01-15T00:54:06;99629.75;;;-2.65;92.02
57572;BME280;44459;43.522;24.470;2024-01-15T00:56:31;99627.97;;;-2.66;92.63
57572;BME280;44459;43.522;24.470;2024-01-15T00:58:57;99619.03;;;-2.72;91.51
57572;BME280;44459;43.522;24.470;2024-01-15T01:01:22;99628.34;;;-2.76;92.83
57572;BME280;44459;43.522;24.470;2024-01-15T01:03:47;99625.53;;;-2.80;93.88
57572;BME280;44459;43.522;24.470;2024-01-15T01:06:13;99611.16;;;-2.75;93.11
57572;BME280;44459;43.522;24.470;2024-01-15T01:08:39;99620.34;;;-2.80;91.79
57572;BME280;44459;43.522;24.470;2024-01-15T01:11:04;99622.88;;;-2.82;93.29
57572;BME280;44459;43.522;24.470;2024-01-15T01:13:31;99621.00;;;-2.84;93.27
57572;BME280;44459;43.522;24.470;2024-01-15T01:15:56;99619.25;;;-2.85;94.17
57572;BME280;44459;43.522;24.470;2024-01-15T01:18:22;99616.09;;;-2.80;94.03
57572;BME280;44459;43.522;24.470;2024-01-15T01:20:47;99610.13;;;-2.79;94.33
57572;BME280;44459;43.522;24.470;2024-01-15T01:23:13;99610.16;;;-2.77;94.24
57572;BME280;44459;43.522;24.470;2024-01-15T01:25:38;99607.81;;;-2.73;93.69
57572;BME280;44459;43.522;24.470;2024-01-15T01:28:04;99600.34;;;-2.67;92.97
57572;BME280;44459;43.522;24.470;2024-01-15T01:30:29;99595.28;;;-2.65;92.57
57572;BME280;44459;43.522;24.470;2024-01-15T01:32:55;99600.44;;;-2.65;92.64
57572;BME280;44459;43.522;24.470;2024-01-15T01:35:20;99607.66;;;-2.58;92.52
57572;BME280;44459;43.522;24.470;2024-01-15T01:37:45;99603.16;;;-2.62;92.69
57572;BME280;44459;43.522;24.470;2024-01-15T01:40:11;99600.66;;;-2.61;92.86
57572;BME280;44459;43.522;24.470;2024-01-15T01:42:36;99602.72;;;-2.53;92.46
57572;BME280;44459;43.522;24.470;2024-01-15T01:45:02;99606.16;;;-2.53;92.08
57572;BME280;44459;43.522;24.470;2024-01-15T01:47:29;99605.31;;;-2.53;91.63
57572;BME280;44459;43.522;24.470;2024-01-15T01:49:55;99605.22;;;-2.55;91.81
57572;BME280;44459;43.522;24.470;2024-01-15T01:52:20;99598.22;;;-2.58;91.57
57572;BME280;44459;43.522;24.470;2024-01-15T01:54:46;99593.88;;;-2.59;91.76
57572;BME280;44459;43.522;24.470;2024-01-15T01:57:12;99594.16;;;-2.53;91.74
57572;BME280;44459;43.522;24.470;2024-01-15T01:59:38;99590.38;;;-2.41;91.14
57572;BME280;44459;43.522;24.470;2024-01-15T02:02:04;99591.00;;;-2.28;90.24
57572;BME280;44459;43.522;24.470;2024-01-15T02:04:31;99589.44;;;-2.24;90.21
57572;BME280;44459;43.522;24.470;2024-01-15T02:06:57;99583.38;;;-2.25;89.69
57572;BME280;44459;43.522;24.470;2024-01-15T02:09:22;99580.94;;;-2.22;89.36
57572;BME280;44459;43.522;24.470;2024-01-15T02:11:47;99582.72;;;-2.21;89.47
57572;BME280;44459;43.522;24.470;2024-01-15T02:14:13;99582.81;;;-2.19;89.16
57572;BME280;44459;43.522;24.470;2024-01-15T02:16:39;99569.75;;;-2.22;88.89
57572;BME280;44459;43.522;24.470;2024-01-15T02:19:05;99568.91;;;-2.21;89.21
57572;BME280;44459;43.522;24.470;2024-01-15T02:21:31;99572.09;;;-2.27;89.59
57572;BME280;44459;43.522;24.470;2024-01-15T02:23:57;99568.00;;;-2.22;89.74
57572;BME280;44459;43.522;24.470;2024-01-15T02:26:23;99566.66;;;-2.14;89.47
57572;BME280;44459;43.522;24.470;2024-01-15T02:28:50;99565.91;;;-2.11;89.61
57572;BME280;44459;43.522;24.470;2024-01-15T02:31:15;99552.09;;;-2.12;89.42
57572;BME280;44459;43.522;24.470;2024-01-15T02:33:42;99558.09;;;-2.13;89.76
57572;BME280;44459;43.522;24.470;2024-01-15T02:36:08;99568.91;;;-2.21;89.85
57572;BME280;44459;43.522;24.470;2024-01-15T02:38:33;99559.19;;;-2.27;89.97
57572;BME280;44459;43.522;24.470;2024-01-15T02:40:59;99551.44;;;-2.27;90.34
57572;BME280;44459;43.522;24.470;2024-01-15T02:43:24;99552.38;;;-2.25;90.39
57572;BME280;44459;43.522;24.470;2024-01-15T02:45:50;99556.59;;;-2.27;91.26
57572;BME280;44459;43.522;24.470;2024-01-15T02:48:15;99541.91;;;-2.28;91.59
57572;BME280;44459;43.522;24.470;2024-01-15T02:50:41;99543.59;;;-2.28;91.78
57572;BME280;44459;43.522;24.470;2024-01-15T02:53:06;99538.66;;;-2.24;91.94
57572;BME280;44459;43.522;24.470;2024-01-15T02:55:31;99533.34;;;-2.27;91.74
57572;BME280;44459;43.522;24.470;2024-01-15T02:57:57;99531.91;;;-2.20;91.95
57572;BME280;44459;43.522;24.470;2024-01-15T03:00:22;99532.94;;;-2.17;92.01
57572;BME280;44459;43.522;24.470;2024-01-15T03:02:50;99531.38;;;-2.13;91.80
57572;BME280;44459;43.522;24.470;2024-01-15T03:05:16;99523.63;;;-2.13;91.95
57572;BME280;44459;43.522;24.470;2024-01-15T03:07:42;99521.97;;;-2.11;91.95
57572;BME280;44459;43.522;24.470;2024-01-15T03:10:08;99518.78;;;-2.06;91.52
57572;BME280;44459;43.522;24.470;2024-01-15T03:12:33;99509.25;;;-2.07;91.68
57572;BME280;44459;43.522;24.470;2024-01-15T03:14:59;99508.44;;;-2.06;91.52
57572;BME280;44459;43.522;24.470;2024-01-15T03:17:24;99516.94;;;-2.08;91.52
57572;BME280;44459;43.522;24.470;2024-01-15T03:19:50;99507.44;;;-2.09;91.50
57572;BME280;44459;43.522;24.470;2024-01-15T03:22:16;99509.53;;;-2.20;91.37
57572;BME280;44459;43.522;24.470;2024-01-15T03:24:42;99507.84;;;-2.19;91.52
57572;BME280;44459;43.522;24.470;2024-01-15T03:27:07;99511.31;;;-2.19;91.55
57572;BME280;44459;43.522;24.470;2024-01-15T03:29:33;99507.09;;;-2.17;91.30
57572;BME280;44459;43.522;24.470;2024-01-15T03:31:58;99498.44;;;-2.17;91.13
57572;BME280;44459;43.522;24.470;2024-01-15T03:34:23;99497.41;;;-2.21;91.45
57572;BME280;44459;43.522;24.470;2024-01-15T03:36:49;99493.47;;;-2.13;91.93
57572;BME280;44459;43.522;24.470;2024-01-15T03:39:14;99484.09;;;-2.11;91.85
57572;BME280;44459;43.522;24.470;2024-01-15T03:41:40;99488.78;;;-2.02;91.81
57572;BME280;44459;43.522;24.470;2024-01-15T03:44:05;99488.03;;;-1.99;91.14
57572;BME280;44459;43.522;24.470;2024-01-15T03:46:31;99493.44;;;-1.93;91.04
57572;BME280;44459;43.522;24.470;2024-01-15T03:48:56;99491.69;;;-1.94;90.69
57572;BME280;44459;43.522;24.470;2024-01-15T03:51:22;99494.88;;;-2.00;90.61
57572;BME280;44459;43.522;24.470;2024-01-15T03:53:48;99492.03;;;-2.06;90.84
57572;BME280;44459;43.522;24.470;2024-01-15T03:56:13;99490.22;;;-2.09;91.00
57572;BME280;44459;43.522;24.470;2024-01-15T03:58:39;99488.50;;;-2.08;91.24
57572;BME280;44459;43.522;24.470;2024-01-15T04:01:08;99479.03;;;-2.08;91.79
57572;BME280;44459;43.522;24.470;2024-01-15T04:03:34;99480.69;;;-2.10;91.90
57572;BME280;44459;43.522;24.470;2024-01-15T04:06:00;99479.94;;;-2.07;92.37
57572;BME280;44459;43.522;24.470;2024-01-15T04:08:25;99480.00;;;-2.06;92.72
57572;BME280;44459;43.522;24.470;2024-01-15T04:10:50;99471.41;;;-2.05;92.28
57572;BME280;44459;43.522;24.470;2024-01-15T04:13:16;99475.72;;;-2.05;92.04
57572;BME280;44459;43.522;24.470;2024-01-15T04:15:41;99477.59;;;-2.01;91.51
57572;BME280;44459;43.522;24.470;2024-01-15T04:18:07;99478.47;;;-2.00;91.26
57572;BME280;44459;43.522;24.470;2024-01-15T04:20:32;99480.38;;;-1.96;90.78
57572;BME280;44459;43.522;24.470;2024-01-15T04:22:57;99481.16;;;-1.99;90.74
57572;BME280;44459;43.522;24.470;2024-01-15T04:25:23;99478.31;;;-2.05;91.11
57572;BME280;44459;43.522;24.470;2024-01-15T04:27:48;99473.75;;;-2.11;91.10
57572;BME280;44459;43.522;24.470;2024-01-15T04:30:14;99473.59;;;-2.14;91.05
57572;BME280;44459;43.522;24.470;2024-01-15T04:32:39;99470.09;;;-2.16;91.59
57572;BME280;44459;43.522;24.470;2024-01-15T04:35:04;99467.50;;;-2.16;91.99
57572;BME280;44459;43.522;24.470;2024-01-15T04:37:30;99467.38;;;-2.19;90.92
57572;BME280;44459;43.522;24.470;2024-01-15T04:39:55;99459.28;;;-2.26;91.19
57572;BME280;44459;43.522;24.470;2024-01-15T04:42:22;99462.59;;;-2.29;91.43
57572;BME280;44459;43.522;24.470;2024-01-15T04:44:48;99452.41;;;-2.26;91.56
57572;BME280;44459;43.522;24.470;2024-01-15T04:47:14;99452.53;;;-2.23;92.29
57572;BME280;44459;43.522;24.470;2024-01-15T04:49:39;99448.06;;;-2.27;91.88
57572;BME280;44459;43.522;24.470;2024-01-15T04:52:04;99444.84;;;-2.21;93.88
57572;BME280;44459;43.522;24.470;2024-01-15T04:54:30;99445.19;;;-2.14;94.03
57572;BME280;44459;43.522;24.470;2024-01-15T04:56:55;99449.53;;;-2.13;94.16
57572;BME280;44459;43.522;24.470;2024-01-15T04:59:21;99444.50;;;-2.10;94.11
57572;BME280;44459;43.522;24.470;2024-01-15T05:01:46;99450.47;;;-2.11;94.00
57572;BME280;44459;43.522;24.470;2024-01-15T05:04:14;99448.66;;;-2.13;93.19
57572;BME280;44459;43.522;24.470;2024-01-15T05:06:39;99440.78;;;-2.16;93.02
57572;BME280;44459;43.522;24.470;2024-01-15T05:09:04;99436.06;;;-2.25;92.56
57572;BME280;44459;43.522;24.470;2024-01-15T05:11:30;99429.50;;;-2.37;92.27
57572;BME280;44459;43.522;24.470;2024-01-15T05:13:55;99419.84;;;-2.41;93.18
57572;BME280;44459;43.522;24.470;2024-01-15T05:16:21;99415.56;;;-2.41;93.92
57572;BME280;44459;43.522;24.470;2024-01-15T05:18:46;99422.50;;;-2.40;95.92
57572;BME280;44459;43.522;24.470;2024-01-15T05:21:12;99416.56;;;-2.37;96.75
57572;BME280;44459;43.522;24.470;2024-01-15T05:23:38;99423.69;;;-2.32;95.47
57572;BME280;44459;43.522;24.470;2024-01-15T05:26:03;99422.63;;;-2.37;96.34
57572;BME280;44459;43.522;24.470;2024-01-15T05:28:29;99425.41;;;-2.32;96.36
57572;BME280;44459;43.522;24.470;2024-01-15T05:30:55;99425.59;;;-2.28;95.79
57572;BME280;44459;43.522;24.470;2024-01-15T05:33:23;99423.81;;;-2.29;96.16
57572;BME280;44459;43.522;24.470;2024-01-15T05:35:49;99421.25;;;-2.29;96.42
57572;BME280;44459;43.522;24.470;2024-01-15T05:38:16;99425.59;;;-2.28;96.67
57572;BME280;44459;43.522;24.470;2024-01-15T05:40:41;99416.63;;;-2.17;96.86
57572;BME280;44459;43.522;24.470;2024-01-15T05:43:07;99416.81;;;-2.12;97.22
57572;BME280;44459;43.522;24.470;2024-01-15T05:45:34;99417.97;;;-2.06;96.81
57572;BME280;44459;43.522;24.470;2024-01-15T05:48:00;99405.94;;;-2.05;96.76
57572;BME280;44459;43.522;24.470;2024-01-15T05:50:25;99409.44;;;-2.03;96.68
57572;BME280;44459;43.522;24.470;2024-01-15T05:52:50;99415.63;;;-1.99;96.12
57572;BME280;44459;43.522;24.470;2024-01-15T05:55:16;99410.22;;;-2.06;95.67
57572;BME280;44459;43.522;24.470;2024-01-15T05:57:43;99408.31;;;-2.10;95.80
57572;BME280;44459;43.522;24.470;2024-01-15T06:00:09;99395.50;;;-2.07;96.33
57572;BME280;44459;43.522;24.470;2024-01-15T06:02:36;99399.88;;;-2.06;96.59
57572;BME280;44459;43.522;24.470;2024-01-15T06:05:02;99397.44;;;-2.01;96.28
57572;BME280;44459;43.522;24.470;2024-01-15T06:07:28;99397.66;;;-1.96;96.47
57572;BME280;44459;43.522;24.470;2024-01-15T06:09:53;99389.13;;;-1.94;96.20
57572;BME280;44459;43.522;24.470;2024-01-15T06:12:19;99382.22;;;-1.95;95.92
57572;BME280;44459;43.522;24.470;2024-01-15T06:14:44;99391.03;;;-1.90;96.44
57572;BME280;44459;43.522;24.470;2024-01-15T06:17:09;99389.66;;;-1.82;96.50
57572;BME280;44459;43.522;24.470;2024-01-15T06:19:36;99381.50;;;-1.70;96.02
57572;BME280;44459;43.522;24.470;2024-01-15T06:22:01;99380.66;;;-1.69;95.69
57572;BME280;44459;43.522;24.470;2024-01-15T06:24:27;99383.56;;;-1.62;95.44
57572;BME280;44459;43.522;24.470;2024-01-15T06:26:52;99384.94;;;-1.49;95.26
57572;BME280;44459;43.522;24.470;2024-01-15T06:29:18;99376.59;;;-1.42;94.89
57572;BME280;44459;43.522;24.470;2024-01-15T06:31:43;99376.00;;;-1.35;94.40
57572;BME280;44459;43.522;24.470;2024-01-15T06:34:09;99378.00;;;-1.28;94.04
57572;BME280;44459;43.522;24.470;2024-01-15T06:36:34;99386.78;;;-1.24;93.54
57572;BME280;44459;43.522;24.470;2024-01-15T06:39:00;99385.16;;;-1.22;93.06
57572;BME280;44459;43.522;24.470;2024-01-15T06:41:25;99382.72;;;-1.18;93.10
57572;BME280;44459;43.522;24.470;2024-01-15T06:43:51;99389.03;;;-1.11;93.10
57572;BME280;44459;43.522;24.470;2024-01-15T06:46:21;99389.06;;;-1.10;93.03
57572;BME280;44459;43.522;24.470;2024-01-15T06:48:46;99382.59;;;-0.98;92.54
57572;BME280;44459;43.522;24.470;2024-01-15T06:51:12;99383.53;;;-0.96;92.14
57572;BME280;44459;43.522;24.470;2024-01-15T06:53:37;99398.31;;;-0.94;92.26
57572;BME280;44459;43.522;24.470;2024-01-15T06:56:03;99394.13;;;-0.90;92.17
57572;BME280;44459;43.522;24.470;2024-01-15T06:58:30;99402.94;;;-0.85;92.25
57572;BME280;44459;43.522;24.470;2024-01-15T07:00:56;99392.16;;;-0.74;92.02
57572;BME280;44459;43.522;24.470;2024-01-15T07:03:21;99392.31;;;-0.69;91.84
57572;BME280;44459;43.522;24.470;2024-01-15T07:05:47;99384.69;;;-0.66;92.11
57572;BME280;44459;43.522;24.470;2024-01-15T07:08:12;99397.19;;;-0.55;91.95
57572;BME280;44459;43.522;24.470;2024-01-15T07:10:38;99397.56;;;-0.44;91.24
57572;BME280;44459;43.522;24.470;2024-01-15T07:13:03;99388.38;;;-0.36;91.52
57572;BME280;44459;43.522;24.470;2024-01-15T07:15:30;99392.34;;;-0.20;91.05
57572;BME280;44459;43.522;24.470;2024-01-15T07:17:56;99390.13;;;-0.10;90.62
57572;BME280;44459;43.522;24.470;2024-01-15T07:20:21;99381.84;;;0.00;90.72
57572;BME280;44459;43.522;24.470;2024-01-15T07:22:47;99386.84;;;0.21;89.96
57572;BME280;44459;43.522;24.470;2024-01-15T07:25:12;99377.78;;;0.34;89.52
57572;BME280;44459;43.522;24.470;2024-01-15T07:27:38;99365.25;;;0.47;89.05
57572;BME280;44459;43.522;24.470;2024-01-15T07:30:04;99357.97;;;0.64;88.55
57572;BME280;44459;43.522;24.470;2024-01-15T07:32:30;99366.34;;;0.84;87.95
57572;BME280;44459;43.522;24.470;2024-01-15T07:34:56;99366.25;;;1.08;86.75
57572;BME280;44459;43.522;24.470;2024-01-15T07:37:22;99363.22;;;1.24;85.80
57572;BME280;44459;43.522;24.470;2024-01-15T07:39:48;99361.09;;;1.40;85.17
57572;BME280;44459;43.522;24.470;2024-01-15T07:42:14;99344.13;;;1.53;84.70
57572;BME280;44459;43.522;24.470;2024-01-15T07:44:39;99347.06;;;1.65;82.99
57572;BME280;44459;43.522;24.470;2024-01-15T07:47:05;99327.38;;;1.75;83.04
57572;BME280;44459;43.522;24.470;2024-01-15T07:49:30;99323.31;;;1.86;82.92
57572;BME280;44459;43.522;24.470;2024-01-15T07:51:56;99335.59;;;1.91;81.94
57572;BME280;44459;43.522;24.470;2024-01-15T07:54:21;99340.19;;;2.01;82.18
57572;BME280;44459;43.522;24.470;2024-01-15T07:57:00;99337.66;;;2.03;82.39
57572;BME280;44459;43.522;24.470;2024-01-15T07:59:26;99335.31;;;2.14;82.08
57572;BME280;44459;43.522;24.470;2024-01-15T08:01:52;99352.09;;;2.25;82.26
57572;BME280;44459;43.522;24.470;2024-01-15T08:04:19;99354.88;;;2.32;80.80
57572;BME280;44459;43.522;24.470;2024-01-15T08:06:45;99342.97;;;2.43;80.64
57572;BME280;44459;43.522;24.470;2024-01-15T08:09:11;99348.50;;;2.57;80.13
57572;BME280;44459;43.522;24.470;2024-01-15T08:11:41;99353.88;;;2.63;80.45
57572;BME280;44459;43.522;24.470;2024-01-15T08:14:07;99353.19;;;2.70;80.90
57572;BME280;44459;43.522;24.470;2024-01-15T08:16:33;99339.44;;;2.77;81.24
57572;BME280;44459;43.522;24.470;2024-01-15T08:18:58;99350.06;;;2.86;81.13
57572;BME280;44459;43.522;24.470;2024-01-15T08:21:24;99344.97;;;2.92;80.25
57572;BME280;44459;43.522;24.470;2024-01-15T08:23:50;99357.28;;;2.99;80.54
57572;BME280;44459;43.522;24.470;2024-01-15T08:26:15;99347.88;;;3.06;80.94
57572;BME280;44459;43.522;24.470;2024-01-15T08:28:41;99341.81;;;3.07;80.51
57572;BME280;44459;43.522;24.470;2024-01-15T08:31:06;99336.72;;;3.12;79.98
57572;BME280;44459;43.522;24.470;2024-01-15T08:33:31;99341.00;;;3.08;80.33
57572;BME280;44459;43.522;24.470;2024-01-15T08:35:57;99331.44;;;3.09;79.76
57572;BME280;44459;43.522;24.470;2024-01-15T08:38:22;99321.16;;;3.16;80.41
57572;BME280;44459;43.522;24.470;2024-01-15T08:40:49;99321.28;;;3.22;79.68
57572;BME280;44459;43.522;24.470;2024-01-15T08:43:14;99320.50;;;3.26;79.52
57572;BME280;44459;43.522;24.470;2024-01-15T08:45:40;99321.41;;;3.30;79.09
57572;BME280;44459;43.522;24.470;2024-01-15T08:48:05;99311.91;;;3.32;79.63
57572;BME280;44459;43.522;24.470;2024-01-15T08:50:32;99314.44;;;3.27;79.08
57572;BME280;44459;43.522;24.470;2024-01-15T08:52:58;99306.66;;;3.29;78.13
57572;BME280;44459;43.522;24.470;2024-01-15T08:55:23;99298.88;;;3.32;78.49
57572;BME280;44459;43.522;24.470;2024-01-15T08:57:49;99306.59;;;3.26;78.84
57572;BME280;44459;43.522;24.470;2024-01-15T09:00:15;99297.03;;;3.26;78.73
57572;BME280;44459;43.522;24.470;2024-01-15T09:02:42;99286.50;;;3.22;79.05
57572;BME280;44459;43.522;24.470;2024-01-15T09:05:07;99282.19;;;3.22;79.52
57572;BME280;44459;43.522;24.470;2024-01-15T09:07:33;99272.53;;;3.20;79.33
57572;BME280;44459;43.522;24.470;2024-01-15T09:09:58;99272.75;;;3.30;79.93
57572;BME280;44459;43.522;24.470;2024-01-15T09:12:25;99265.75;;;3.28;79.91
57572;BME280;44459;43.522;24.470;2024-01-15T09:14:51;99252.94;;;3.38;80.15
57572;BME280;44459;43.522;24.470;2024-01-15T09:17:17;99253.97;;;3.46;80.76
57572;BME280;44459;43.522;24.470;2024-01-15T09:19:43;99253.97;;;3.48;80.50
57572;BME280;44459;43.522;24.470;2024-01-15T09:22:09;99261.06;;;3.53;79.91
57572;BME280;44459;43.522;24.470;2024-01-15T09:24:35;99245.41;;;3.53;79.77
57572;BME280;44459;43.522;24.470;2024-01-15T09:27:00;99250.84;;;3.67;80.40
57572;BME280;44459;43.522;24.470;2024-01-15T09:29:26;99235.44;;;3.82;80.04
57572;BME280;44459;43.522;24.470;2024-01-15T09:31:51;99222.59;;;3.96;80.25
57572;BME280;44459;43.522;24.470;2024-01-15T09:34:17;99225.63;;;4.22;77.49
57572;BME280;44459;43.522;24.470;2024-01-15T09:36:43;99216.34;;;4.40;77.69
57572;BME280;44459;43.522;24.470;2024-01-15T09:39:09;99207.03;;;4.62;77.95
57572;BME280;44459;43.522;24.470;2024-01-15T09:41:36;99201.16;;;4.78;77.74
57572;BME280;44459;43.522;24.470;2024-01-15T09:44:03;99198.78;;;4.98;75.32
57572;BME280;44459;43.522;24.470;2024-01-15T09:46:28;99188.50;;;5.15;72.17
57572;BME280;44459;43.522;24.470;2024-01-15T09:48:54;99181.72;;;5.35;70.76
57572;BME280;44459;43.522;24.470;2024-01-15T09:51:19;99177.50;;;5.47;70.14
57572;BME280;44459;43.522;24.470;2024-01-15T09:53:46;99174.13;;;5.61;69.91
57572;BME280;44459;43.522;24.470;2024-01-15T09:56:12;99151.47;;;5.67;68.89
57572;BME280;44459;43.522;24.470;2024-01-15T09:58:39;99146.34;;;5.78;68.47
57572;BME280;44459;43.522;24.470;2024-01-15T10:01:04;99145.50;;;5.85;67.96
57572;BME280;44459;43.522;24.470;2024-01-15T10:03:30;99142.88;;;5.85;66.66
57572;BME280;44459;43.522;24.470;2024-01-15T10:05:59;99143.78;;;5.85;65.72
57572;BME280;44459;43.522;24.470;2024-01-15T10:08:25;99127.31;;;5.98;67.54
57572;BME280;44459;43.522;24.470;2024-01-15T10:10:51;99127.28;;;5.92;66.43
57572;BME280;44459;43.522;24.470;2024-01-15T10:13:17;99117.69;;;6.00;67.46
57572;BME280;44459;43.522;24.470;2024-01-15T10:15:45;99119.50;;;6.09;67.79
57572;BME280;44459;43.522;24.470;2024-01-15T10:18:12;99122.13;;;6.09;67.45
57572;BME280;44459;43.522;24.470;2024-01-15T10:20:37;99111.66;;;6.09;67.03
57572;BME280;44459;43.522;24.470;2024-01-15T10:23:03;99109.91;;;6.11;67.24
57572;BME280;44459;43.522;24.470;2024-01-15T10:25:29;99105.53;;;6.12;68.17
57572;BME280;44459;43.522;24.470;2024-01-15T10:28:03;99093.34;;;6.14;68.66
57572;BME280;44459;43.522;24.470;2024-01-15T10:30:29;99098.53;;;6.07;68.02
57572;BME280;44459;43.522;24.470;2024-01-15T10:33:03;99100.28;;;6.08;68.14
57572;BME280;44459;43.522;24.470;2024-01-15T10:35:30;99097.63;;;6.04;69.27
57572;BME280;44459;43.522;24.470;2024-01-15T10:37:59;99097.69;;;6.08;68.56
57572;BME280;44459;43.522;24.470;2024-01-15T10:40:25;99098.59;;;6.11;68.56
57572;BME280;44459;43.522;24.470;2024-01-15T10:42:50;99102.97;;;6.16;69.00
57572;BME280;44459;43.522;24.470;2024-01-15T10:45:16;99088.97;;;6.16;67.84
57572;BME280;44459;43.522;24.470;2024-01-15T10:47:42;99082.88;;;6.14;67.19
57572;BME280;44459;43.522;24.470;2024-01-15T10:50:09;99072.38;;;6.18;66.16
57572;BME280;44459;43.522;24.470;2024-01-15T10:52:39;99069.78;;;6.20;66.97
57572;BME280;44459;43.522;24.470;2024-01-15T10:55:07;99061.91;;;6.14;68.57
57572;BME280;44459;43.522;24.470;2024-01-15T10:57:34;99064.56;;;6.26;68.63
57572;BME280;44459;43.522;24.470;2024-01-15T11:00:00;99062.81;;;6.23;68.44
57572;BME280;44459;43.522;24.470;2024-01-15T11:02:29;99067.19;;;6.26;68.71
57572;BME280;44459;43.522;24.470;2024-01-15T11:04:54;99060.19;;;6.22;69.23
57572;BME280;44459;43.522;24.470;2024-01-15T11:07:22;99070.66;;;6.19;69.28
57572;BME280;44459;43.522;24.470;2024-01-15T11:09:50;99057.56;;;6.14;69.49
57572;BME280;44459;43.522;24.470;2024-01-15T11:12:16;99047.00;;;6.05;70.63
57572;BME280;44459;43.522;24.470;2024-01-15T11:14:46;99046.13;;;6.00;70.45
57572;BME280;44459;43.522;24.470;2024-01-15T11:17:13;99054.88;;;6.03;70.71
57572;BME280;44459;43.522;24.470;2024-01-15T11:23:08;99060.09;;;5.99;71.93
57572;BME280;44459;43.522;24.470;2024-01-15T11:25:13;99047.88;;;6.02;72.13
57572;BME280;44459;43.522;24.470;2024-01-15T11:27:47;99038.31;;;6.12;71.77
57572;BME280;44459;43.522;24.470;2024-01-15T11:30:13;99033.09;;;6.18;72.63
57572;BME280;44459;43.522;24.470;2024-01-15T11:32:39;99033.13;;;6.23;73.03
57572;BME280;44459;43.522;24.470;2024-01-15T11:35:11;99033.13;;;6.29;72.03
57572;BME280;44459;43.522;24.470;2024-01-15T11:37:59;99027.06;;;6.31;71.64
57572;BME280;44459;43.522;24.470;2024-01-15T11:43:05;99015.72;;;6.41;71.66
57572;BME280;44459;43.522;24.470;2024-01-15T11:45:31;99001.75;;;6.45;71.93
57572;BME280;44459;43.522;24.470;2024-01-15T11:50:34;98993.03;;;6.45;72.12
57572;BME280;44459;43.522;24.470;2024-01-15T11:53:03;98993.03;;;6.54;72.11
57572;BME280;44459;43.522;24.470;2024-01-15T11:55:36;98984.28;;;6.50;72.28
57572;BME280;44459;43.522;24.470;2024-01-15T11:58:08;99002.63;;;6.44;71.02
57572;BME280;44459;43.522;24.470;2024-01-15T12:00:44;99000.00;;;6.44;71.83
57572;BME280;44459;43.522;24.470;2024-01-15T12:03:10;99000.00;;;6.44;72.28
57572;BME280;44459;43.522;24.470;2024-01-15T12:05:37;99000.88;;;6.45;74.13
57572;BME280;44459;43.522;24.470;2024-01-15T12:08:03;98992.13;;;6.43;74.06
57572;BME280;44459;43.522;24.470;2024-01-15T12:10:29;98992.13;;;6.46;74.30
57572;BME280;44459;43.522;24.470;2024-01-15T12:12:59;98995.66;;;6.48;75.70
57572;BME280;44459;43.522;24.470;2024-01-15T12:15:27;98972.03;;;6.43;77.91
57572;BME280;44459;43.522;24.470;2024-01-15T12:17:57;98970.28;;;6.36;78.46
57572;BME280;44459;43.522;24.470;2024-01-15T12:20:26;98979.88;;;6.36;78.62
57572;BME280;44459;43.522;24.470;2024-01-15T12:22:52;98979.81;;;6.15;75.20
57572;BME280;44459;43.522;24.470;2024-01-15T12:25:18;98990.25;;;5.99;78.02
57572;BME280;44459;43.522;24.470;2024-01-15T12:27:44;98979.75;;;5.93;76.44
57572;BME280;44459;43.522;24.470;2024-01-15T12:30:12;98983.97;;;5.73;75.92
57572;BME280;44459;43.522;24.470;2024-01-15T12:32:37;98981.28;;;5.61;76.63
57572;BME280;44459;43.522;24.470;2024-01-15T12:35:03;98975.19;;;5.64;77.04
57572;BME280;44459;43.522;24.470;2024-01-15T12:37:29;98972.56;;;5.64;77.88
57572;BME280;44459;43.522;24.470;2024-01-15T12:39:55;98980.44;;;5.65;77.95
57572;BME280;44459;43.522;24.470;2024-01-15T12:42:21;98975.22;;;5.67;78.53
57572;BME280;44459;43.522;24.470;2024-01-15T12:44:47;98965.63;;;5.70;78.10
57572;BME280;44459;43.522;24.470;2024-01-15T12:47:12;98966.47;;;5.65;78.52
57572;BME280;44459;43.522;24.470;2024-01-15T12:49:39;98965.63;;;5.67;78.40
57572;BME280;44459;43.522;24.470;2024-01-15T12:52:08;98965.63;;;5.70;77.26
57572;BME280;44459;43.522;24.470;2024-01-15T12:54:33;98964.75;;;5.68;77.53
57572;BME280;44459;43.522;24.470;2024-01-15T12:56:59;98960.38;;;5.67;78.43